Time;durP1;ratioP1;P1;durP2;ratioP2;P2;SDS_P1;SDS_P2;PMS_P1;PMS_P2;Temp;Humidity;BMP_temperature;BMP_pressure;BME280_temperature;BME280_humidity;BME280_pressure;Samples;Min_cycle;Max_cycle;Signal;HPM_P1;HPM_P2
2021/11/26 00:01:39;;;;;;;90.80;27.77;;;;;;;;;;5003797;28;20092;-58
2021/11/26 00:04:05;;;;;;;88.40;26.40;;;;;;;;;;5000315;28;20484;-57
2021/11/26 00:06:31;;;;;;;81.75;24.67;;;;;;;;;;5000789;28;20033;-58
2021/11/26 00:08:57;;;;;;;80.75;25.42;;;;;;;;;;4995176;28;20029;-57
2021/11/26 00:11:24;;;;;;;83.57;26.90;;;;;;;;;;4997874;28;20152;-58
2021/11/26 00:14:00;;;;;;;84.30;26.80;;;;;;;;;;5006019;28;20169;-58
2021/11/26 00:16:31;;;;;;;85.53;25.17;;;;;;;;;;5003202;28;20085;-58
2021/11/26 00:18:59;;;;;;;82.03;26.65;;;;;;;;;;5003154;28;20117;-58
2021/11/26 00:21:24;;;;;;;83.95;26.20;;;;;;;;;;5001988;28;20030;-59
2021/11/26 00:23:49;;;;;;;93.22;27.73;;;;;;;;;;5003630;28;20045;-57
2021/11/26 00:26:15;;;;;;;81.65;27.83;;;;;;;;;;4998602;28;20037;-56
2021/11/26 00:28:40;;;;;;;96.68;28.08;;;;;;;;;;4998777;28;20061;-58
2021/11/26 00:31:06;;;;;;;95.80;30.27;;;;;;;;;;5000349;28;20069;-57
2021/11/26 00:33:31;;;;;;;89.53;26.60;;;;;;;;;;5004207;28;20040;-58
2021/11/26 00:35:58;;;;;;;84.97;26.13;;;;;;;;;;4999412;28;20029;-57
2021/11/26 00:38:24;;;;;;;79.40;24.65;;;;;;;;;;5001225;28;20271;-58
2021/11/26 00:40:49;;;;;;;85.10;24.33;;;;;;;;;;5003586;28;20443;-58
2021/11/26 00:43:15;;;;;;;99.10;27.58;;;;;;;;;;4998231;28;20049;-57
2021/11/26 00:45:40;;;;;;;81.05;25.25;;;;;;;;;;5001049;28;20034;-58
2021/11/26 00:48:06;;;;;;;79.38;24.00;;;;;;;;;;4999212;28;20026;-53
2021/11/26 00:50:32;;;;;;;86.18;23.88;;;;;;;;;;4999060;28;20098;-58
2021/11/26 00:52:57;;;;;;;91.75;25.35;;;;;;;;;;5003696;28;20034;-56
2021/11/26 00:55:23;;;;;;;89.22;25.10;;;;;;;;;;5007455;28;20029;-56
2021/11/26 00:57:48;;;;;;;89.00;25.83;;;;;;;;;;5004234;28;20076;-58
2021/11/26 01:00:17;;;;;;;94.63;26.85;;;;;;;;;;5000935;28;20027;-57
2021/11/26 01:02:43;;;;;;;86.00;25.90;;;;;;;;;;5000775;28;20029;-58
2021/11/26 01:05:10;;;;;;;103.30;26.70;;;;;;;;;;5002886;28;20041;-58
2021/11/26 01:07:36;;;;;;;88.00;25.15;;;;;;;;;;5002615;28;20128;-57
2021/11/26 01:10:05;;;;;;;92.30;25.48;;;;;;;;;;4999088;28;20042;-58
2021/11/26 01:12:30;;;;;;;94.32;26.55;;;;;;;;;;4997376;28;20512;-58
2021/11/26 01:14:55;;;;;;;89.38;24.70;;;;;;;;;;5002929;28;20189;-58
2021/11/26 01:17:21;;;;;;;92.25;26.08;;;;;;;;;;5000958;28;20507;-58
2021/11/26 01:19:46;;;;;;;89.05;26.10;;;;;;;;;;5000113;28;20576;-58
2021/11/26 01:22:12;;;;;;;84.95;25.45;;;;;;;;;;5003284;28;20121;-58
2021/11/26 01:24:38;;;;;;;96.18;25.73;;;;;;;;;;5004975;28;20038;-57
2021/11/26 01:27:06;;;;;;;95.20;24.83;;;;;;;;;;4998291;28;20392;-57
2021/11/26 01:29:35;;;;;;;97.80;26.33;;;;;;;;;;5002769;28;20034;-58
2021/11/26 01:32:02;;;;;;;102.13;24.63;;;;;;;;;;5006426;28;20037;-58
2021/11/26 01:34:27;;;;;;;88.30;25.05;;;;;;;;;;5009475;28;20722;-57
2021/11/26 01:36:53;;;;;;;94.82;27.25;;;;;;;;;;5004798;28;20196;-57
2021/11/26 01:39:18;;;;;;;99.95;28.50;;;;;;;;;;5008817;28;20135;-58
2021/11/26 01:41:44;;;;;;;100.25;25.83;;;;;;;;;;5005932;28;20026;-57
2021/11/26 01:44:10;;;;;;;89.85;26.25;;;;;;;;;;5005902;28;20400;-58
2021/11/26 01:46:43;;;;;;;103.03;27.10;;;;;;;;;;5005507;28;20034;-58
2021/11/26 01:49:12;;;;;;;97.35;26.67;;;;;;;;;;5007826;28;20026;-58
2021/11/26 01:51:38;;;;;;;96.63;26.13;;;;;;;;;;5008114;28;20507;-58
2021/11/26 01:54:05;;;;;;;94.75;26.55;;;;;;;;;;5007262;28;20250;-57
2021/11/26 01:56:31;;;;;;;100.78;29.50;;;;;;;;;;5009822;28;20022;-58
2021/11/26 01:58:57;;;;;;;101.53;28.23;;;;;;;;;;5007497;28;20049;-57
2021/11/26 02:01:23;;;;;;;91.05;24.33;;;;;;;;;;5008112;28;20040;-58
2021/11/26 02:03:49;;;;;;;93.82;25.30;;;;;;;;;;5006283;28;20030;-58
2021/11/26 02:06:15;;;;;;;101.68;27.08;;;;;;;;;;5006820;28;20554;-57
2021/11/26 02:08:40;;;;;;;98.20;26.55;;;;;;;;;;5010831;28;20028;-58
2021/11/26 02:11:06;;;;;;;95.30;26.77;;;;;;;;;;5008740;28;20030;-58
2021/11/26 02:13:32;;;;;;;86.32;24.42;;;;;;;;;;5009276;28;20030;-58
2021/11/26 02:16:00;;;;;;;99.75;26.10;;;;;;;;;;5007602;28;20034;-57
2021/11/26 02:18:25;;;;;;;96.60;28.55;;;;;;;;;;5005119;28;20037;-56
2021/11/26 02:20:51;;;;;;;103.82;27.33;;;;;;;;;;5009650;28;20042;-58
2021/11/26 02:23:16;;;;;;;101.38;25.13;;;;;;;;;;5005101;28;20038;-58
2021/11/26 02:25:43;;;;;;;105.88;29.33;;;;;;;;;;5003547;28;20714;-58
2021/11/26 02:28:10;;;;;;;97.50;25.83;;;;;;;;;;5005189;28;20040;-58
2021/11/26 02:30:36;;;;;;;93.32;25.98;;;;;;;;;;5006740;28;20361;-58
2021/11/26 02:33:12;;;;;;;98.03;26.05;;;;;;;;;;5000403;28;20116;-58
2021/11/26 02:35:40;;;;;;;93.65;25.65;;;;;;;;;;5003128;28;20041;-58
2021/11/26 02:38:08;;;;;;;96.63;26.50;;;;;;;;;;5005165;28;20030;-57
2021/11/26 02:40:36;;;;;;;90.45;24.63;;;;;;;;;;5007738;28;20030;-58
2021/11/26 02:43:01;;;;;;;83.18;24.65;;;;;;;;;;5000926;28;20021;-58
2021/11/26 02:45:28;;;;;;;85.28;25.17;;;;;;;;;;5005214;28;20337;-57
2021/11/26 02:47:55;;;;;;;90.60;26.25;;;;;;;;;;5004366;28;20030;-58
2021/11/26 02:50:22;;;;;;;95.18;25.80;;;;;;;;;;5007387;28;20026;-58
2021/11/26 02:52:48;;;;;;;102.05;28.00;;;;;;;;;;5005281;28;20033;-58
2021/11/26 02:55:17;;;;;;;86.63;24.65;;;;;;;;;;5007841;28;20107;-58
2021/11/26 02:57:42;;;;;;;102.27;27.73;;;;;;;;;;5007030;28;20078;-58
2021/11/26 03:00:09;;;;;;;87.35;27.58;;;;;;;;;;5002820;28;20065;-57
2021/11/26 03:02:35;;;;;;;99.35;27.67;;;;;;;;;;5003149;28;20094;-58
2021/11/26 03:05:01;;;;;;;94.40;26.35;;;;;;;;;;5006126;28;20034;-58
2021/11/26 03:07:26;;;;;;;91.95;26.15;;;;;;;;;;5007275;28;20373;-58
2021/11/26 03:09:52;;;;;;;91.68;27.60;;;;;;;;;;5004847;28;20033;-58
2021/11/26 03:12:18;;;;;;;86.88;27.55;;;;;;;;;;5003794;28;20500;-58
2021/11/26 03:14:43;;;;;;;96.70;28.48;;;;;;;;;;5005596;28;20040;-58
2021/11/26 03:17:09;;;;;;;89.32;28.42;;;;;;;;;;5005806;28;20030;-58
2021/11/26 03:19:34;;;;;;;90.85;27.33;;;;;;;;;;5005548;28;20034;-58
2021/11/26 03:22:00;;;;;;;83.55;26.27;;;;;;;;;;5005580;28;20104;-58
2021/11/26 03:24:25;;;;;;;90.82;25.65;;;;;;;;;;5004714;28;20026;-58
2021/11/26 03:26:51;;;;;;;89.03;26.63;;;;;;;;;;5002469;28;20022;-58
2021/11/26 03:29:17;;;;;;;87.03;25.45;;;;;;;;;;5004814;28;20474;-57
2021/11/26 03:31:42;;;;;;;89.28;26.00;;;;;;;;;;5003266;28;20571;-57
2021/11/26 03:34:08;;;;;;;96.15;25.85;;;;;;;;;;5000912;28;20145;-58
2021/11/26 03:36:34;;;;;;;89.88;27.25;;;;;;;;;;5003481;28;20030;-59
2021/11/26 03:38:59;;;;;;;86.68;26.05;;;;;;;;;;5004684;28;20052;-58
2021/11/26 03:41:25;;;;;;;84.63;24.90;;;;;;;;;;4999145;28;20033;-56
2021/11/26 03:43:51;;;;;;;87.10;25.40;;;;;;;;;;5002708;28;20463;-57
2021/11/26 03:46:16;;;;;;;97.60;26.45;;;;;;;;;;5004574;28;20040;-56
2021/11/26 03:48:43;;;;;;;83.95;25.63;;;;;;;;;;5000018;28;20443;-58
2021/11/26 03:51:09;;;;;;;90.97;28.00;;;;;;;;;;5002290;28;20084;-58
2021/11/26 03:53:35;;;;;;;85.57;24.90;;;;;;;;;;5002440;28;20506;-58
2021/11/26 03:56:01;;;;;;;85.00;26.33;;;;;;;;;;5005117;28;20038;-58
2021/11/26 03:58:26;;;;;;;84.28;25.75;;;;;;;;;;5000690;28;20022;-57
2021/11/26 04:00:52;;;;;;;83.45;25.17;;;;;;;;;;5004426;28;20038;-57
2021/11/26 04:03:17;;;;;;;87.45;26.15;;;;;;;;;;5002321;28;20396;-58
2021/11/26 04:05:43;;;;;;;85.32;25.35;;;;;;;;;;5000787;28;22008;-58
2021/11/26 04:08:08;;;;;;;79.30;24.52;;;;;;;;;;4997321;28;20398;-57
2021/11/26 04:10:36;;;;;;;87.55;24.70;;;;;;;;;;5007533;28;20507;-58
2021/11/26 04:13:02;;;;;;;90.03;26.42;;;;;;;;;;5000791;28;20036;-57
2021/11/26 04:15:27;;;;;;;75.22;24.85;;;;;;;;;;5002270;28;20025;-58
2021/11/26 04:17:55;;;;;;;90.90;25.48;;;;;;;;;;5005464;28;20037;-58
2021/11/26 04:20:21;;;;;;;87.45;26.67;;;;;;;;;;5004317;28;20057;-57
2021/11/26 04:22:47;;;;;;;90.35;26.35;;;;;;;;;;5000744;28;20040;-57
2021/11/26 04:25:15;;;;;;;81.97;24.42;;;;;;;;;;5004066;28;20033;-58
2021/11/26 04:27:41;;;;;;;86.72;26.52;;;;;;;;;;4998016;28;20441;-58
2021/11/26 04:30:08;;;;;;;87.18;26.13;;;;;;;;;;5000620;28;20606;-58
2021/11/26 04:32:34;;;;;;;79.80;25.55;;;;;;;;;;5002751;28;20440;-57
2021/11/26 04:35:00;;;;;;;83.18;24.50;;;;;;;;;;4999535;28;20439;-57
2021/11/26 04:37:25;;;;;;;84.90;25.58;;;;;;;;;;5003035;28;20412;-57
2021/11/26 04:39:51;;;;;;;90.05;27.33;;;;;;;;;;5001193;28;20065;-57
2021/11/26 04:42:17;;;;;;;96.00;28.30;;;;;;;;;;5002418;28;20033;-58
2021/11/26 04:44:43;;;;;;;98.82;25.50;;;;;;;;;;5001189;28;20041;-56
2021/11/26 04:47:08;;;;;;;105.88;27.73;;;;;;;;;;5004447;28;20042;-57
2021/11/26 04:49:33;;;;;;;89.63;27.92;;;;;;;;;;4999606;28;20577;-58
2021/11/26 04:51:59;;;;;;;97.75;28.42;;;;;;;;;;5001667;28;20030;-57
2021/11/26 04:54:24;;;;;;;88.75;27.60;;;;;;;;;;5005133;28;20380;-58
2021/11/26 04:56:50;;;;;;;91.53;27.92;;;;;;;;;;5004272;28;20029;-57
2021/11/26 04:59:15;;;;;;;90.70;26.33;;;;;;;;;;5002234;28;20188;-57
2021/11/26 05:01:41;;;;;;;86.50;25.05;;;;;;;;;;5004119;28;20302;-57
2021/11/26 05:04:06;;;;;;;91.63;27.52;;;;;;;;;;5001014;28;20404;-57
2021/11/26 05:06:34;;;;;;;96.57;27.98;;;;;;;;;;5000229;28;21114;-57
2021/11/26 05:09:00;;;;;;;86.60;26.25;;;;;;;;;;5002421;28;20038;-57
2021/11/26 05:11:26;;;;;;;91.70;25.98;;;;;;;;;;4999375;28;20028;-58
2021/11/26 05:13:51;;;;;;;89.38;27.50;;;;;;;;;;5000341;28;20030;-57
2021/11/26 05:16:17;;;;;;;97.82;27.85;;;;;;;;;;5003630;28;20076;-57
2021/11/26 05:18:43;;;;;;;102.25;27.40;;;;;;;;;;5001990;28;20038;-57
2021/11/26 05:21:09;;;;;;;99.97;27.80;;;;;;;;;;5004078;28;20053;-58
2021/11/26 05:23:35;;;;;;;108.28;31.75;;;;;;;;;;5002779;28;20057;-58
2021/11/26 05:26:00;;;;;;;102.07;29.00;;;;;;;;;;5002801;28;20034;-58
2021/11/26 05:28:26;;;;;;;99.05;26.70;;;;;;;;;;5002112;28;20068;-58
2021/11/26 05:30:52;;;;;;;95.32;27.05;;;;;;;;;;5002614;28;20037;-57
2021/11/26 05:33:17;;;;;;;83.43;25.05;;;;;;;;;;5001313;28;20120;-57
2021/11/26 05:35:43;;;;;;;96.97;27.60;;;;;;;;;;4999835;28;20038;-57
2021/11/26 05:38:09;;;;;;;84.10;25.65;;;;;;;;;;5000279;28;20025;-57
2021/11/26 05:40:34;;;;;;;94.75;27.67;;;;;;;;;;5001016;28;20076;-58
2021/11/26 05:43:00;;;;;;;99.03;28.33;;;;;;;;;;5002615;28;20046;-57
2021/11/26 05:45:26;;;;;;;100.30;30.40;;;;;;;;;;4997284;28;20042;-56
2021/11/26 05:47:51;;;;;;;100.00;28.80;;;;;;;;;;5002765;28;20042;-57
2021/11/26 05:50:19;;;;;;;104.28;28.83;;;;;;;;;;5002054;28;20037;-58
2021/11/26 05:52:45;;;;;;;88.05;24.95;;;;;;;;;;5002308;28;20061;-56
2021/11/26 05:55:14;;;;;;;102.88;29.10;;;;;;;;;;5002498;28;20095;-56
2021/11/26 05:57:39;;;;;;;104.43;30.53;;;;;;;;;;5001741;28;20388;-57
2021/11/26 06:00:07;;;;;;;96.75;28.20;;;;;;;;;;4999886;28;20029;-57
2021/11/26 06:02:33;;;;;;;101.65;26.10;;;;;;;;;;5003489;28;20017;-58
2021/11/26 06:04:58;;;;;;;107.45;28.48;;;;;;;;;;4999107;28;20509;-57
2021/11/26 06:07:23;;;;;;;94.95;28.30;;;;;;;;;;4997286;28;20505;-58
2021/11/26 06:09:49;;;;;;;94.90;27.38;;;;;;;;;;5004793;28;20084;-59
2021/11/26 06:12:15;;;;;;;98.78;27.58;;;;;;;;;;4999052;28;20081;-60
2021/11/26 06:14:41;;;;;;;103.97;28.75;;;;;;;;;;5001889;28;20180;-60
2021/11/26 06:17:07;;;;;;;92.15;25.65;;;;;;;;;;5002395;28;20033;-59
2021/11/26 06:19:32;;;;;;;65.32;19.05;;;;;;;;;;5003830;28;20529;-59
2021/11/26 06:21:58;;;;;;;108.63;28.02;;;;;;;;;;5007656;28;20482;-59
2021/11/26 06:24:23;;;;;;;106.38;28.15;;;;;;;;;;5002730;28;20416;-59
2021/11/26 06:26:49;;;;;;;109.45;30.63;;;;;;;;;;5004425;28;20045;-59
2021/11/26 06:29:14;;;;;;;99.72;27.17;;;;;;;;;;4999732;28;20092;-60
2021/11/26 06:31:41;;;;;;;101.05;26.90;;;;;;;;;;5005435;28;20125;-59
2021/11/26 06:34:06;;;;;;;100.15;26.13;;;;;;;;;;5007130;28;20025;-60
2021/11/26 06:36:33;;;;;;;100.72;27.67;;;;;;;;;;5006664;28;20022;-59
2021/11/26 06:38:59;;;;;;;100.45;27.20;;;;;;;;;;5002513;28;20642;-59
2021/11/26 06:41:25;;;;;;;95.28;25.05;;;;;;;;;;5000385;28;20033;-59
2021/11/26 06:43:51;;;;;;;99.82;27.17;;;;;;;;;;5004392;28;20037;-59
2021/11/26 06:46:17;;;;;;;93.13;26.85;;;;;;;;;;4996595;28;20026;-59
2021/11/26 06:48:42;;;;;;;95.55;27.13;;;;;;;;;;5001501;28;20036;-59
2021/11/26 06:51:07;;;;;;;98.13;27.98;;;;;;;;;;5003722;28;20022;-60
2021/11/26 06:53:33;;;;;;;98.38;25.58;;;;;;;;;;5003134;28;20038;-60
2021/11/26 06:55:58;;;;;;;104.18;28.60;;;;;;;;;;5000803;28;20029;-60
2021/11/26 06:58:24;;;;;;;97.35;25.85;;;;;;;;;;5004214;28;20042;-60
2021/11/26 07:00:49;;;;;;;97.70;27.02;;;;;;;;;;5000828;28;20030;-60
2021/11/26 07:03:14;;;;;;;103.03;27.08;;;;;;;;;;5002334;28;20046;-60
2021/11/26 07:05:40;;;;;;;107.78;28.48;;;;;;;;;;4999972;28;20066;-60
2021/11/26 07:08:05;;;;;;;108.07;28.95;;;;;;;;;;5002969;28;20504;-60
2021/11/26 07:10:31;;;;;;;105.45;30.08;;;;;;;;;;5002219;28;20072;-60
2021/11/26 07:12:57;;;;;;;106.95;29.80;;;;;;;;;;5004977;28;20040;-60
2021/11/26 07:15:22;;;;;;;111.47;28.98;;;;;;;;;;5002553;28;20267;-59
2021/11/26 07:17:48;;;;;;;124.75;31.50;;;;;;;;;;5003150;28;20038;-60
2021/11/26 07:20:14;;;;;;;122.57;32.17;;;;;;;;;;5003896;28;20121;-59
2021/11/26 07:22:39;;;;;;;121.60;32.13;;;;;;;;;;5000967;28;20081;-60
2021/11/26 07:25:06;;;;;;;114.13;28.63;;;;;;;;;;5005481;28;20517;-60
2021/11/26 07:27:32;;;;;;;98.80;26.88;;;;;;;;;;4998694;28;20034;-59
2021/11/26 07:29:58;;;;;;;107.15;28.00;;;;;;;;;;5004127;28;20507;-59
2021/11/26 07:32:24;;;;;;;109.15;27.50;;;;;;;;;;4999950;28;20037;-60
2021/11/26 07:34:50;;;;;;;103.93;28.50;;;;;;;;;;5003684;28;20042;-59
2021/11/26 07:37:17;;;;;;;99.93;28.88;;;;;;;;;;5001780;28;20033;-60
2021/11/26 07:39:43;;;;;;;111.28;27.80;;;;;;;;;;5003149;28;20017;-60
2021/11/26 07:42:11;;;;;;;115.82;30.88;;;;;;;;;;5004376;28;20029;-60
2021/11/26 07:44:39;;;;;;;104.05;28.73;;;;;;;;;;5002436;28;20431;-60
2021/11/26 07:47:07;;;;;;;97.80;28.70;;;;;;;;;;5000899;28;20037;-59
2021/11/26 07:49:33;;;;;;;104.72;28.92;;;;;;;;;;5005764;28;20084;-60
2021/11/26 07:52:00;;;;;;;104.78;29.35;;;;;;;;;;5004791;28;20480;-60
2021/11/26 07:54:26;;;;;;;100.85;26.92;;;;;;;;;;5002838;28;20033;-60
2021/11/26 07:56:52;;;;;;;113.60;30.05;;;;;;;;;;5000837;28;20356;-60
2021/11/26 07:59:19;;;;;;;112.35;29.38;;;;;;;;;;5001123;28;20038;-60
2021/11/26 08:01:44;;;;;;;108.32;30.20;;;;;;;;;;5001640;28;20087;-59
2021/11/26 08:04:10;;;;;;;107.95;28.33;;;;;;;;;;5003135;28;20100;-59
2021/11/26 08:06:36;;;;;;;97.35;26.17;;;;;;;;;;4993507;28;20033;-60
2021/11/26 08:09:06;;;;;;;101.68;26.58;;;;;;;;;;4991096;28;20022;-61
2021/11/26 08:11:31;;;;;;;110.88;29.38;;;;;;;;;;4998806;28;20037;-59
2021/11/26 08:13:57;;;;;;;102.80;28.85;;;;;;;;;;5001165;28;20052;-60
2021/11/26 08:16:22;;;;;;;96.30;27.50;;;;;;;;;;4999821;28;20109;-59
2021/11/26 08:18:48;;;;;;;102.30;26.58;;;;;;;;;;5003451;28;20038;-59
2021/11/26 08:21:14;;;;;;;104.65;27.00;;;;;;;;;;5011657;28;20396;-60
2021/11/26 08:23:39;;;;;;;94.30;26.55;;;;;;;;;;5004029;28;20022;-60
2021/11/26 08:26:05;;;;;;;96.05;24.65;;;;;;;;;;4999703;28;20030;-60
2021/11/26 08:28:30;;;;;;;91.43;26.48;;;;;;;;;;4998955;28;20037;-60
2021/11/26 08:30:57;;;;;;;91.68;24.08;;;;;;;;;;5004954;28;20041;-60
2021/11/26 08:33:24;;;;;;;84.57;23.42;;;;;;;;;;4998676;28;20062;-60
2021/11/26 08:35:50;;;;;;;85.13;22.65;;;;;;;;;;5004395;28;20045;-59
2021/11/26 08:38:16;;;;;;;72.95;20.35;;;;;;;;;;4995308;28;20026;-60
2021/11/26 08:40:42;;;;;;;75.72;21.33;;;;;;;;;;5001870;28;20045;-59
2021/11/26 08:43:07;;;;;;;80.30;22.95;;;;;;;;;;5000754;28;20107;-60
2021/11/26 08:45:33;;;;;;;82.15;22.48;;;;;;;;;;5000887;28;20080;-61
2021/11/26 08:48:00;;;;;;;83.72;22.23;;;;;;;;;;4999832;28;20030;-59
2021/11/26 08:50:25;;;;;;;87.30;23.25;;;;;;;;;;5002239;28;20029;-59
2021/11/26 08:52:51;;;;;;;88.18;23.25;;;;;;;;;;4999501;28;20026;-60
2021/11/26 08:55:18;;;;;;;81.55;22.65;;;;;;;;;;5000420;28;20033;-60
2021/11/26 08:57:52;;;;;;;88.53;23.10;;;;;;;;;;5001486;28;20021;-59
2021/11/26 09:00:20;;;;;;;90.30;23.75;;;;;;;;;;4996107;28;20029;-60
2021/11/26 09:02:46;;;;;;;78.65;22.15;;;;;;;;;;5001532;28;20468;-60
2021/11/26 09:05:13;;;;;;;76.88;21.50;;;;;;;;;;5003005;28;20061;-59
2021/11/26 09:07:39;;;;;;;82.43;22.40;;;;;;;;;;5001109;28;20038;-59
2021/11/26 09:10:04;;;;;;;94.93;28.05;;;;;;;;;;4999961;28;20033;-60
2021/11/26 09:12:30;;;;;;;97.63;26.95;;;;;;;;;;5000150;28;20115;-59
2021/11/26 09:14:56;;;;;;;91.38;25.02;;;;;;;;;;4997873;28;20040;-59
2021/11/26 09:17:21;;;;;;;87.55;23.60;;;;;;;;;;4999781;28;20101;-59
2021/11/26 09:19:47;;;;;;;91.10;24.92;;;;;;;;;;4997064;28;20034;-59
2021/11/26 09:22:12;;;;;;;94.85;23.83;;;;;;;;;;5003761;28;20071;-59
2021/11/26 09:24:38;;;;;;;88.18;25.23;;;;;;;;;;5003965;28;20030;-60
2021/11/26 09:27:04;;;;;;;93.97;25.20;;;;;;;;;;5001849;28;20112;-59
2021/11/26 09:29:29;;;;;;;82.25;21.50;;;;;;;;;;5003431;28;20092;-59
2021/11/26 09:31:55;;;;;;;87.78;24.80;;;;;;;;;;4997880;28;20115;-59
2021/11/26 09:34:20;;;;;;;74.13;22.05;;;;;;;;;;5002102;28;20041;-59
2021/11/26 09:36:46;;;;;;;84.47;22.42;;;;;;;;;;5002503;28;20738;-59
2021/11/26 09:39:11;;;;;;;69.35;21.05;;;;;;;;;;4999169;28;21587;-59
2021/11/26 09:41:37;;;;;;;68.03;20.58;;;;;;;;;;5003994;28;20113;-59
2021/11/26 09:44:04;;;;;;;73.68;22.33;;;;;;;;;;5000238;28;20401;-59
2021/11/26 09:46:37;;;;;;;67.72;21.65;;;;;;;;;;4999371;28;20397;-59
2021/11/26 09:49:05;;;;;;;80.68;22.38;;;;;;;;;;4995325;28;20240;-59
2021/11/26 09:51:30;;;;;;;73.63;21.70;;;;;;;;;;5004700;28;20037;-59
2021/11/26 09:53:56;;;;;;;75.53;22.35;;;;;;;;;;5006320;28;20037;-59
2021/11/26 09:56:22;;;;;;;72.32;21.65;;;;;;;;;;5006990;28;20040;-59
2021/11/26 09:58:48;;;;;;;71.05;21.55;;;;;;;;;;5001139;28;20034;-60
2021/11/26 10:01:14;;;;;;;74.93;22.40;;;;;;;;;;5003609;28;20472;-60
2021/11/26 10:03:43;;;;;;;65.00;21.05;;;;;;;;;;5002197;28;20439;-60
2021/11/26 10:06:34;;;;;;;65.43;19.73;;;;;;;;;;4997043;28;20034;-58
2021/11/26 10:09:11;;;;;;;74.50;21.70;;;;;;;;;;5015075;28;20029;-59
2021/11/26 10:11:48;;;;;;;67.63;20.60;;;;;;;;;;5000884;28;20037;-58
2021/11/26 10:14:15;;;;;;;72.68;21.60;;;;;;;;;;4998244;28;20513;-59
2021/11/26 10:16:45;;;;;;;65.45;19.70;;;;;;;;;;5001089;28;20038;-60
2021/11/26 10:19:12;;;;;;;65.50;20.20;;;;;;;;;;5001738;28;20084;-60
2021/11/26 10:21:38;;;;;;;69.55;20.65;;;;;;;;;;5001122;28;20045;-59
2021/11/26 10:24:13;;;;;;;62.53;18.65;;;;;;;;;;5001230;28;20042;-59
2021/11/26 10:26:39;;;;;;;57.45;19.10;;;;;;;;;;5000527;28;20037;-59
2021/11/26 10:29:05;;;;;;;61.15;19.55;;;;;;;;;;4996991;28;20796;-59
2021/11/26 10:31:31;;;;;;;53.63;17.15;;;;;;;;;;5001420;28;20034;-59
2021/11/26 10:33:59;;;;;;;58.17;18.92;;;;;;;;;;5009238;28;20044;-59
2021/11/26 10:36:25;;;;;;;63.90;18.88;;;;;;;;;;5002429;28;20034;-59
2021/11/26 10:38:53;;;;;;;55.45;17.52;;;;;;;;;;4997298;28;20037;-59
2021/11/26 10:41:30;;;;;;;58.17;18.13;;;;;;;;;;5001659;28;20041;-59
2021/11/26 10:44:06;;;;;;;52.95;16.90;;;;;;;;;;5000755;28;20036;-59
2021/11/26 10:49:51;;;;;;;51.42;17.02;;;;;;;;;;4999790;28;22179;-59
2021/11/26 10:59:49;;;;;;;50.60;15.13;;;;;;;;;;5003883;28;20034;-59
2021/11/26 11:02:28;;;;;;;61.10;18.50;;;;;;;;;;5001607;28;20036;-59
2021/11/26 11:04:54;;;;;;;55.05;17.50;;;;;;;;;;5002725;28;20120;-59
2021/11/26 11:07:20;;;;;;;59.08;18.15;;;;;;;;;;5001010;28;20410;-59
2021/11/26 11:09:53;;;;;;;56.65;18.75;;;;;;;;;;5000038;28;20030;-59
2021/11/26 11:12:29;;;;;;;59.80;17.85;;;;;;;;;;5006145;28;20113;-58
2021/11/26 11:14:58;;;;;;;55.20;17.00;;;;;;;;;;5004605;28;20121;-59
2021/11/26 11:17:27;;;;;;;53.97;17.83;;;;;;;;;;5001082;28;20033;-58
2021/11/26 11:20:00;;;;;;;50.25;17.23;;;;;;;;;;5003289;28;20575;-59
2021/11/26 11:22:26;;;;;;;52.53;16.30;;;;;;;;;;5008523;28;20400;-59
2021/11/26 11:24:53;;;;;;;49.17;16.05;;;;;;;;;;5000507;28;20033;-59
2021/11/26 11:27:19;;;;;;;48.55;16.25;;;;;;;;;;5004792;28;20029;-60
2021/11/26 11:29:44;;;;;;;47.65;14.68;;;;;;;;;;4999921;28;20029;-59
2021/11/26 11:32:10;;;;;;;49.42;14.93;;;;;;;;;;4999118;28;20038;-59
2021/11/26 11:34:36;;;;;;;45.78;15.00;;;;;;;;;;5001714;28;20023;-59
2021/11/26 11:37:07;;;;;;;49.88;16.13;;;;;;;;;;4998906;28;20591;-59
2021/11/26 11:39:44;;;;;;;44.13;15.18;;;;;;;;;;4997650;28;20885;-59
2021/11/26 11:42:09;;;;;;;46.05;15.35;;;;;;;;;;4997463;28;20049;-59
2021/11/26 11:44:37;;;;;;;47.40;15.98;;;;;;;;;;5001634;28;20416;-60
2021/11/26 11:47:20;;;;;;;45.90;14.63;;;;;;;;;;5002272;28;20024;-59
2021/11/26 11:49:46;;;;;;;49.67;15.77;;;;;;;;;;5003809;28;20435;-60
2021/11/26 11:52:14;;;;;;;46.85;16.50;;;;;;;;;;5000124;28;20488;-59
2021/11/26 11:54:44;;;;;;;41.55;14.43;;;;;;;;;;5000359;28;20041;-59
2021/11/26 11:57:29;;;;;;;45.80;14.80;;;;;;;;;;5004379;28;20087;-59
2021/11/26 12:00:13;;;;;;;47.47;15.20;;;;;;;;;;5004125;28;20569;-59
2021/11/26 12:02:39;;;;;;;49.78;16.52;;;;;;;;;;5001019;28;20433;-59
2021/11/26 12:05:05;;;;;;;46.10;16.77;;;;;;;;;;5001165;28;20385;-58
2021/11/26 12:07:32;;;;;;;42.97;16.52;;;;;;;;;;5000830;28;20038;-58
2021/11/26 12:10:13;;;;;;;47.90;16.35;;;;;;;;;;5008476;28;20029;-59
2021/11/26 12:12:54;;;;;;;47.88;15.68;;;;;;;;;;5001947;28;20022;-58
2021/11/26 12:15:34;;;;;;;42.90;14.93;;;;;;;;;;5003959;28;20053;-59
2021/11/26 12:18:07;;;;;;;45.83;16.75;;;;;;;;;;5004039;28;20167;-59
2021/11/26 12:20:35;;;;;;;44.25;15.77;;;;;;;;;;5003053;28;20377;-56
2021/11/26 12:23:27;;;;;;;53.60;17.58;;;;;;;;;;5003470;28;20030;-58
2021/11/26 12:26:17;;;;;;;49.13;16.08;;;;;;;;;;5000708;28;20029;-60
2021/11/26 12:28:49;;;;;;;48.65;16.85;;;;;;;;;;4999083;28;20125;-59
2021/11/26 12:31:16;;;;;;;44.53;16.55;;;;;;;;;;4998620;28;20038;-60
2021/11/26 12:33:41;;;;;;;50.08;17.02;;;;;;;;;;5004040;28;20033;-60
2021/11/26 12:36:09;;;;;;;45.47;16.50;;;;;;;;;;4998275;28;20022;-60
2021/11/26 12:38:37;;;;;;;48.42;17.25;;;;;;;;;;4998415;28;20393;-60
2021/11/26 12:41:03;;;;;;;47.45;16.45;;;;;;;;;;4994736;28;20299;-60
2021/11/26 12:43:44;;;;;;;50.42;17.52;;;;;;;;;;5003339;28;20047;-60
2021/11/26 12:46:23;;;;;;;47.30;16.88;;;;;;;;;;5002240;28;20018;-59
2021/11/26 12:51:03;;;;;;;43.92;16.85;;;;;;;;;;4996056;28;20143;-59
2021/11/26 12:51:55;;;;;;;45.97;15.98;;;;;;;;;;4997053;28;20040;-59
2021/11/26 12:54:26;;;;;;;37.20;15.32;;;;;;;;;;4999860;28;20033;-59
2021/11/26 12:56:52;;;;;;;42.72;15.98;;;;;;;;;;4997993;28;20089;-58
2021/11/26 12:59:36;;;;;;;47.22;15.63;;;;;;;;;;5000097;28;20057;-59
2021/11/26 13:02:03;;;;;;;38.33;13.13;;;;;;;;;;5004100;28;20087;-59
2021/11/26 13:04:29;;;;;;;39.03;14.35;;;;;;;;;;5002017;28;20061;-59
2021/11/26 13:07:06;;;;;;;40.78;13.63;;;;;;;;;;5003800;28;20064;-59
2021/11/26 13:09:49;;;;;;;35.88;13.60;;;;;;;;;;5000183;28;20072;-59
2021/11/26 13:12:17;;;;;;;36.78;13.30;;;;;;;;;;5002759;28;20054;-61
2021/11/26 13:14:44;;;;;;;42.25;15.27;;;;;;;;;;5001650;28;20026;-59
2021/11/26 13:17:10;;;;;;;33.10;13.20;;;;;;;;;;5000537;28;20026;-60
2021/11/26 13:19:35;;;;;;;35.95;13.45;;;;;;;;;;4996538;28;20034;-60
2021/11/26 13:22:01;;;;;;;36.83;13.85;;;;;;;;;;5000087;28;20040;-60
2021/11/26 13:24:26;;;;;;;42.03;15.18;;;;;;;;;;5000291;28;20148;-59
2021/11/26 13:26:58;;;;;;;31.10;13.05;;;;;;;;;;4997424;28;20812;-60
2021/11/26 13:29:24;;;;;;;31.98;11.95;;;;;;;;;;4997414;28;20958;-60
2021/11/26 13:31:54;;;;;;;30.73;13.32;;;;;;;;;;5001971;28;21088;-60
2021/11/26 13:34:19;;;;;;;35.00;13.32;;;;;;;;;;5004822;28;20040;-61
2021/11/26 13:36:45;;;;;;;30.92;11.80;;;;;;;;;;5007272;28;20031;-60
2021/11/26 13:39:16;;;;;;;34.17;14.07;;;;;;;;;;5004535;28;20439;-60
2021/11/26 13:41:45;;;;;;;33.10;12.40;;;;;;;;;;5005829;28;20030;-60
2021/11/26 13:44:16;;;;;;;30.08;13.05;;;;;;;;;;5000369;28;20034;-60
2021/11/26 13:46:43;;;;;;;27.08;11.18;;;;;;;;;;5000288;28;20030;-60
2021/11/26 13:49:11;;;;;;;33.33;13.45;;;;;;;;;;4999657;28;20064;-60
2021/11/26 13:52:11;;;;;;;43.15;15.77;;;;;;;;;;5003307;28;20488;-59
2021/11/26 13:54:38;;;;;;;;;;;;;;;;;;4999332;28;20046;-59
2021/11/26 13:57:05;;;;;;;31.67;11.98;;;;;;;;;;5004065;28;19943;-61
2021/11/26 13:59:33;;;;;;;26.40;10.23;;;;;;;;;;4997375;28;20421;-59
2021/11/26 14:02:12;;;;;;;29.20;10.50;;;;;;;;;;4996065;28;20033;-59
2021/11/26 14:04:40;;;;;;;35.15;13.13;;;;;;;;;;4996378;28;20117;-59
2021/11/26 14:07:11;;;;;;;29.08;11.93;;;;;;;;;;4999899;28;20031;-59
2021/11/26 14:09:38;;;;;;;33.50;12.68;;;;;;;;;;4996576;28;20030;-60
2021/11/26 14:12:13;;;;;;;31.98;12.57;;;;;;;;;;4999787;28;20508;-60
2021/11/26 14:14:40;;;;;;;31.27;11.27;;;;;;;;;;4996547;28;20037;-59
2021/11/26 14:17:05;;;;;;;29.15;12.48;;;;;;;;;;5002765;28;20037;-59
2021/11/26 14:19:38;;;;;;;25.05;10.45;;;;;;;;;;4997281;28;20585;-60
2021/11/26 14:22:05;;;;;;;29.50;11.90;;;;;;;;;;5001119;28;20033;-60
2021/11/26 14:24:39;;;;;;;27.90;11.93;;;;;;;;;;5000800;28;20432;-60
2021/11/26 14:27:07;;;;;;;32.42;11.68;;;;;;;;;;5001337;28;20044;-60
2021/11/26 14:29:33;;;;;;;26.40;11.70;;;;;;;;;;4998421;28;20034;-60